Accueil
METAR-TAF:

METAR-TAF

Aéroports :

Nouméa, Nouvelle-Calédonie

Aéroport de Magenta

latitude: 22-15-30S, longitude: 166-28-22E, altitude: 3 m

METAR: absent

Heure: 11:52 (00:52 UTC)

Prévision

Le bulletin a été fait il y a 7 heures et 52 minutes, à 17:00 UTC
Prévision valable du 23 à 18 UTC au 24 à 18 UTC
Vent 8 kt de est/nord-est
Visibilité 10 km ou plus
Quelques nuages à une hauteur de 5000 ft
Nuages fragmentés à une hauteur de 12000 ft
Probabilité 30% :
Temporairement
du 23 à 18 UTC au 23 à 24 UTC
Visibilité: 4000 m
Quelques nuages à une hauteur de 2500 ft, Cumulus congestus.
averses de pluie

TAF: NWWM 231700Z 2318/2418 07008KT 9999 FEW050 BKN120 PROB30 TEMPO 2318/2324 4000 SHRA FEW025TCU

Observations et prévisions météorologiques de plus de 4000 aéroports (messages METAR et TAF).

Les stations disponibles sont représentées par des disques jaunes et rouges sur la carte.

Passer la souris dessus pour voir le nom de la station.

Cliquer dessus pour voir les observations et prévisions météorologiques.

Pour changer de carte: cliquez sur les boutons verts avec une croix noire pour zoomer, sur le bouton vert avec un tiret pour effectuer un zoom arrière, ou sur les flèches vertes pour les cartes adjacentes.


METAR-TAF: